Time;durP1;ratioP1;P1;durP2;ratioP2;P2;SDS_P1;SDS_P2;PMS_P1;PMS_P2;Temp;Humidity;BMP_temperature;BMP_pressure;BME280_temperature;BME280_humidity;BME280_pressure;Samples;Min_cycle;Max_cycle;Signal;HPM_P1;HPM_P2
2022/03/19 00:01:32;;;;;;;40.87;15.00;;;0.60;39.10;;;;;;5032324;28;20032;-82
2022/03/19 00:03:58;;;;;;;37.08;14.43;;;0.50;39.20;;;;;;5035491;28;20466;-83
2022/03/19 00:06:24;;;;;;;33.50;14.38;;;0.50;39.20;;;;;;5032054;28;20029;-83
2022/03/19 00:08:50;;;;;;;33.87;13.00;;;0.40;39.30;;;;;;5050445;28;20049;-83
2022/03/19 00:11:15;;;;;;;34.92;12.32;;;0.30;39.40;;;;;;5034570;28;20065;-85
2022/03/19 00:13:41;;;;;;;34.80;13.70;;;0.40;39.60;;;;;;5035150;28;20017;-84
2022/03/19 00:16:06;;;;;;;38.55;12.55;;;0.30;39.50;;;;;;5035253;28;20409;-85
2022/03/19 00:18:32;;;;;;;28.30;11.75;;;0.40;39.60;;;;;;5034933;28;20017;-84
2022/03/19 00:20:57;;;;;;;34.53;13.65;;;0.40;39.70;;;;;;5035267;28;20017;-84
2022/03/19 00:23:23;;;;;;;34.95;12.80;;;0.40;39.70;;;;;;5034971;28;20036;-85
2022/03/19 00:25:49;;;;;;;30.02;11.63;;;0.40;39.80;;;;;;5053298;28;20150;-84
2022/03/19 00:28:18;;;;;;;34.78;11.95;;;0.40;40.10;;;;;;5035319;28;20393;-85
2022/03/19 00:30:45;;;;;;;33.30;12.80;;;0.50;40.00;;;;;;5035299;28;20021;-84
2022/03/19 00:33:12;;;;;;;30.83;12.33;;;0.40;40.10;;;;;;5034845;28;20091;-83
2022/03/19 00:35:37;;;;;;;;;;;0.50;40.20;;;;;;5035378;28;20478;-84
2022/03/19 00:38:04;;;;;;;29.87;12.30;;;0.50;40.20;;;;;;5035472;28;19909;-84
2022/03/19 00:40:32;;;;;;;31.33;12.97;;;0.50;39.90;;;;;;5035337;28;20028;-84
2022/03/19 00:42:58;;;;;;;31.57;13.53;;;0.50;40.10;;;;;;5029996;28;20033;-83
2022/03/19 00:45:23;;;;;;;35.63;12.77;;;0.50;40.20;;;;;;5034182;28;20478;-83
2022/03/19 00:47:49;;;;;;;33.00;13.85;;;0.40;40.30;;;;;;5034314;28;20048;-84
2022/03/19 00:50:14;;;;;;;26.45;12.88;;;0.40;40.30;;;;;;5034830;28;20108;-83
2022/03/19 00:52:40;;;;;;;26.30;12.27;;;0.40;40.30;;;;;;5034394;28;20485;-84
2022/03/19 00:55:07;;;;;;;34.08;13.05;;;0.50;40.40;;;;;;5047772;28;20025;-84
2022/03/19 00:57:44;;;;;;;35.43;14.10;;;0.50;40.40;;;;;;5035131;28;20079;-85
2022/03/19 01:00:12;;;;;;;32.97;12.93;;;0.40;40.40;;;;;;5035076;28;20025;-83
2022/03/19 01:02:39;;;;;;;35.70;13.70;;;0.40;40.40;;;;;;5034486;28;20474;-84
2022/03/19 01:05:06;;;;;;;32.90;14.60;;;0.40;40.50;;;;;;5052745;28;20108;-84
2022/03/19 01:07:32;;;;;;;38.70;14.83;;;0.40;40.50;;;;;;5034550;28;20021;-84
2022/03/19 01:09:57;;;;;;;34.97;14.30;;;0.40;40.60;;;;;;5034742;28;20031;-84
2022/03/19 01:12:23;;;;;;;29.35;12.77;;;0.40;40.50;;;;;;5034389;28;20155;-84
2022/03/19 01:14:48;;;;;;;32.58;14.38;;;0.40;40.50;;;;;;5032743;28;20021;-85
2022/03/19 01:17:14;;;;;;;28.30;12.07;;;0.30;40.40;;;;;;5027993;28;20021;-84
2022/03/19 01:19:54;;;;;;;33.50;13.27;;;0.30;40.40;;;;;;5026472;28;20036;-81
2022/03/19 01:22:24;;;;;;;36.37;14.23;;;0.20;40.50;;;;;;5034809;28;20470;-82
2022/03/19 01:24:50;;;;;;;36.10;16.10;;;0.20;40.60;;;;;;5051641;28;20025;-84
2022/03/19 01:27:16;;;;;;;;;;;0.10;40.70;;;;;;5034930;28;20029;-84
2022/03/19 01:29:42;;;;;;;42.37;15.77;;;0.00;40.80;;;;;;5034682;28;19916;-83
2022/03/19 01:32:08;;;;;;;50.65;18.00;;;0.00;40.60;;;;;;5034683;28;20056;-84
2022/03/19 01:34:33;;;;;;;;;;;-3276.60;40.90;;;;;;5034768;28;20425;-82
2022/03/19 01:36:59;;;;;;;39.40;16.07;;;-3276.50;41.10;;;;;;5052276;28;19921;-83
2022/03/19 01:39:25;;;;;;;44.47;17.15;;;-3276.40;41.00;;;;;;5034465;28;20051;-84
2022/03/19 01:41:50;;;;;;;42.35;16.35;;;-3276.30;41.30;;;;;;5034205;28;20029;-83
2022/03/19 01:44:20;;;;;;;44.95;17.45;;;-3276.20;41.50;;;;;;5033978;28;20033;-83
2022/03/19 01:46:59;;;;;;;44.17;16.93;;;-3276.10;41.70;;;;;;5034167;28;20424;-83
2022/03/19 01:49:26;;;;;;;40.23;16.43;;;-3276.00;41.90;;;;;;5033174;28;20504;-84
2022/03/19 01:51:52;;;;;;;39.00;16.13;;;-3276.00;41.90;;;;;;5034473;28;20029;-84
2022/03/19 01:54:22;;;;;;;;;;;-3275.90;42.00;;;;;;5033498;28;20474;-84
2022/03/19 01:56:49;;;;;;;34.27;15.07;;;-3275.90;42.00;;;;;;5052466;28;19916;-84
2022/03/19 01:59:16;;;;;;;35.57;14.80;;;-3275.90;41.70;;;;;;5038097;28;20039;-84
2022/03/19 02:01:43;;;;;;;38.17;16.03;;;-3275.70;41.90;;;;;;5037567;28;20032;-82
2022/03/19 02:04:09;;;;;;;38.37;15.17;;;-3275.70;42.10;;;;;;5037392;28;20028;-84
2022/03/19 02:06:36;;;;;;;41.27;17.03;;;-3275.60;42.30;;;;;;5037618;28;20059;-84
2022/03/19 02:09:03;;;;;;;41.03;15.20;;;-3275.60;42.40;;;;;;5038251;28;20053;-85
2022/03/19 02:11:29;;;;;;;36.13;15.30;;;-3275.60;42.50;;;;;;5037718;28;20021;-85
2022/03/19 02:13:55;;;;;;;;;;;-3275.50;42.60;;;;;;5038850;28;20025;-85
2022/03/19 02:16:20;;;;;;;35.17;13.70;;;-3275.50;42.60;;;;;;5037747;28;19987;-84
2022/03/19 02:18:46;;;;;;;38.38;15.20;;;-3275.60;42.30;;;;;;5037086;28;20045;-84
2022/03/19 02:21:11;;;;;;;38.78;14.68;;;-3275.50;42.40;;;;;;5056109;28;20465;-83
2022/03/19 02:26:21;;;;;;;34.80;15.17;;;-3275.40;42.50;;;;;;5055978;28;20120;-84
2022/03/19 02:28:47;;;;;;;35.85;14.45;;;-3275.40;42.60;;;;;;5037456;28;20048;-84
2022/03/19 02:31:12;;;;;;;38.88;16.40;;;-3275.30;42.70;;;;;;5037724;28;20021;-84
2022/03/19 02:33:38;;;;;;;37.03;16.45;;;-3275.30;42.90;;;;;;5032889;28;20041;-85
2022/03/19 02:36:04;;;;;;;39.20;17.25;;;-3275.20;43.00;;;;;;5034707;28;20013;-82
2022/03/19 02:38:29;;;;;;;41.67;15.70;;;-3275.10;43.20;;;;;;5052377;28;20025;-81
2022/03/19 02:40:55;;;;;;;41.30;17.48;;;-3275.10;43.40;;;;;;5052599;28;20033;-83
2022/03/19 02:43:20;;;;;;;44.10;17.30;;;-3275.00;43.50;;;;;;5037627;28;20024;-82
2022/03/19 02:45:47;;;;;;;43.47;15.85;;;-3274.90;43.60;;;;;;5037338;28;20029;-83
2022/03/19 02:48:12;;;;;;;41.97;15.93;;;-3274.90;43.70;;;;;;5036896;28;20424;-83
2022/03/19 02:50:38;;;;;;;40.45;16.17;;;-3274.80;43.80;;;;;;5037007;28;20020;-84
2022/03/19 02:53:08;;;;;;;30.42;15.18;;;-3274.80;44.00;;;;;;5036732;28;20908;-83
2022/03/19 02:55:36;;;;;;;40.53;16.33;;;-3274.70;44.20;;;;;;5037481;28;20025;-84
2022/03/19 02:58:02;;;;;;;38.60;15.87;;;-3274.70;44.30;;;;;;5036669;28;20059;-84
2022/03/19 03:00:28;;;;;;;34.13;14.73;;;-3274.70;44.40;;;;;;5037651;28;20413;-84
2022/03/19 03:02:55;;;;;;;44.27;15.57;;;-3274.70;44.50;;;;;;5036922;28;20487;-84
2022/03/19 03:05:20;;;;;;;35.83;16.73;;;-3274.60;44.60;;;;;;5037203;28;20025;-83
2022/03/19 03:07:46;;;;;;;42.47;15.10;;;-3274.50;44.60;;;;;;5036914;28;20140;-83
2022/03/19 03:10:15;;;;;;;38.00;16.23;;;-3274.60;44.70;;;;;;5035926;28;20371;-83
2022/03/19 03:12:40;;;;;;;39.03;15.53;;;-3274.50;44.70;;;;;;5054800;28;20021;-82
2022/03/19 03:15:06;;;;;;;37.50;14.80;;;-3274.50;44.70;;;;;;5036344;28;20032;-82
2022/03/19 03:17:35;;;;;;;39.57;15.20;;;-3274.50;44.80;;;;;;5036337;28;20013;-83
2022/03/19 03:20:02;;;;;;;41.87;15.50;;;-3274.50;44.80;;;;;;5054755;28;20021;-84
2022/03/19 03:22:29;;;;;;;44.93;16.33;;;-3274.50;44.80;;;;;;5036392;28;20032;-84
2022/03/19 03:24:55;;;;;;;39.03;15.23;;;-3274.50;44.90;;;;;;5028463;28;20048;-83
2022/03/19 03:27:21;;;;;;;50.03;18.90;;;-3274.50;44.90;;;;;;5024688;28;20022;-84
2022/03/19 03:29:46;;;;;;;;;;;-3274.50;44.90;;;;;;5027771;28;20025;-84
2022/03/19 03:32:12;;;;;;;136.40;44.03;;;-3274.50;44.90;;;;;;5035451;28;20004;-84
2022/03/19 03:34:38;;;;;;;97.13;34.58;;;-3274.50;44.70;;;;;;5054713;28;20048;-84
2022/03/19 03:37:04;;;;;;;99.87;35.33;;;-3274.40;44.80;;;;;;5036164;28;20023;-83
2022/03/19 03:39:30;;;;;;;86.70;33.13;;;-3274.50;44.80;;;;;;5035962;28;20409;-83
2022/03/19 03:41:56;;;;;;;71.28;26.95;;;-3274.60;44.90;;;;;;5036336;28;20029;-84
2022/03/19 03:44:22;;;;;;;63.60;25.57;;;-3274.70;45.00;;;;;;5054476;28;20029;-84
2022/03/19 03:46:48;;;;;;;;;;;-3274.70;45.00;;;;;;5036164;28;20505;-82
2022/03/19 03:49:14;;;;;;;67.53;22.63;;;-3274.70;45.00;;;;;;5035915;28;19982;-83
2022/03/19 03:51:39;;;;;;;56.88;20.25;;;-3274.80;44.60;;;;;;5036180;28;20025;-84
2022/03/19 03:54:06;;;;;;;69.30;22.70;;;-3274.80;44.70;;;;;;5036289;28;20016;-84
2022/03/19 03:56:32;;;;;;;66.10;21.57;;;-3274.80;44.80;;;;;;5053873;28;20021;-83
2022/03/19 03:58:57;;;;;;;119.43;34.40;;;-3274.80;44.80;;;;;;5036197;28;20029;-83
2022/03/19 04:01:23;;;;;;;128.23;41.10;;;-3274.70;44.90;;;;;;5036358;28;20158;-83
2022/03/19 04:03:49;;;;;;;129.23;41.78;;;-3274.80;44.90;;;;;;5035856;28;20029;-83
2022/03/19 04:06:14;;;;;;;113.53;39.53;;;-3274.80;44.90;;;;;;5035932;28;20026;-83
2022/03/19 04:08:40;;;;;;;110.87;37.03;;;-3274.80;45.00;;;;;;5034948;28;20021;-83
2022/03/19 04:11:06;;;;;;;76.05;27.55;;;-3274.80;45.00;;;;;;5035915;28;20116;-83
2022/03/19 04:13:31;;;;;;;77.00;27.25;;;-3274.70;45.00;;;;;;5035924;28;20371;-82
2022/03/19 04:15:57;;;;;;;65.13;24.02;;;-3274.70;45.10;;;;;;5035919;28;20017;-82
2022/03/19 04:18:22;;;;;;;67.05;25.25;;;-3274.70;45.10;;;;;;5035485;28;20029;-82
2022/03/19 04:20:48;;;;;;;56.85;22.25;;;-3274.70;45.20;;;;;;5034796;28;20017;-83
2022/03/19 04:23:14;;;;;;;57.83;22.65;;;-3274.70;45.20;;;;;;5036289;28;20025;-83
2022/03/19 04:25:40;;;;;;;64.50;21.67;;;-3274.70;45.30;;;;;;5036099;28;20059;-83
2022/03/19 04:28:06;;;;;;;48.30;17.87;;;-3274.60;45.40;;;;;;5054127;28;20029;-83
2022/03/19 04:30:31;;;;;;;49.03;19.55;;;-3274.60;45.60;;;;;;5034628;28;20025;-84
2022/03/19 04:32:59;;;;;;;46.08;18.30;;;-3274.60;45.60;;;;;;5035399;28;20049;-84
2022/03/19 04:38:15;;;;;;;46.00;16.60;;;-3274.70;45.80;;;;;;5054216;28;20032;-84
2022/03/19 04:40:42;;;;;;;34.17;15.67;;;-3274.70;45.80;;;;;;5035403;28;20478;-84
2022/03/19 04:43:08;;;;;;;40.40;17.10;;;-3274.70;45.80;;;;;;5035545;28;20394;-84
2022/03/19 04:45:35;;;;;;;41.27;16.97;;;-3274.70;46.00;;;;;;5035054;28;20461;-84
2022/03/19 04:48:01;;;;;;;40.90;16.90;;;-3274.70;46.00;;;;;;5035182;28;20029;-84
2022/03/19 04:50:27;;;;;;;;;;;-3274.60;46.00;;;;;;5054238;28;20078;-84
2022/03/19 04:52:53;;;;;;;43.07;18.47;;;-3274.70;46.10;;;;;;5033788;28;19908;-83
2022/03/19 04:55:19;;;;;;;62.43;20.50;;;-3274.60;45.90;;;;;;5025617;28;20509;-83
2022/03/19 04:57:46;;;;;;;;;;;-3274.60;46.00;;;;;;5030564;28;20025;-81
2022/03/19 05:00:12;;;;;;;53.88;18.75;;;-3274.60;46.10;;;;;;5031475;28;20358;-83
2022/03/19 05:02:38;;;;;;;;;;;-3274.60;45.90;;;;;;5036099;28;20029;-82
2022/03/19 05:05:04;;;;;;;50.17;16.97;;;-3274.70;46.10;;;;;;5034895;28;19915;-83
2022/03/19 05:07:35;;;;;;;50.10;17.00;;;-3274.70;46.00;;;;;;5034851;28;20107;-83
2022/03/19 05:12:47;;;;;;;41.58;16.13;;;-3274.80;46.20;;;;;;5048023;28;20079;-83
2022/03/19 05:15:15;;;;;;;34.67;15.65;;;-3274.90;46.20;;;;;;5035500;28;20078;-83
2022/03/19 05:17:42;;;;;;;39.77;16.60;;;-3274.90;46.30;;;;;;5053025;28;20036;-84
2022/03/19 05:20:08;;;;;;;41.23;16.00;;;-3275.00;46.40;;;;;;5034753;28;20033;-84
2022/03/19 05:22:34;;;;;;;45.92;16.88;;;-3275.00;46.50;;;;;;5028930;28;20032;-83
2022/03/19 05:25:03;;;;;;;37.22;16.00;;;-3275.10;46.70;;;;;;5035542;28;20021;-82
2022/03/19 05:27:28;;;;;;;36.33;15.10;;;-3275.20;46.70;;;;;;5034850;28;20021;-83
2022/03/19 05:29:54;;;;;;;40.58;17.02;;;-3275.30;46.70;;;;;;5035118;28;20385;-83
2022/03/19 05:32:21;;;;;;;35.75;15.57;;;-3275.40;46.90;;;;;;5053679;28;20032;-83
2022/03/19 05:34:47;;;;;;;42.43;15.77;;;-3275.40;46.80;;;;;;5057130;28;20029;-84
2022/03/19 05:37:13;;;;;;;34.57;17.00;;;-3275.50;46.90;;;;;;5057166;28;20017;-83
2022/03/19 05:39:39;;;;;;;35.83;12.73;;;-3275.70;46.80;;;;;;5037650;28;20428;-83
2022/03/19 05:42:05;;;;;;;32.03;14.18;;;-3275.70;46.90;;;;;;5056307;28;20029;-82
2022/03/19 05:44:32;;;;;;;44.17;16.83;;;-3275.80;47.00;;;;;;5037473;28;20115;-82
2022/03/19 05:47:00;;;;;;;;;;;-3275.90;47.10;;;;;;5038795;28;20021;-82
2022/03/19 05:49:27;;;;;;;31.43;12.97;;;-3276.00;46.90;;;;;;5038477;28;19978;-83
2022/03/19 05:51:53;;;;;;;39.10;15.50;;;-3276.10;46.90;;;;;;5038519;28;20037;-83
2022/03/19 05:54:19;;;;;;;35.27;14.53;;;-3276.20;46.80;;;;;;5038437;28;20500;-82
2022/03/19 05:56:45;;;;;;;32.38;14.20;;;-3276.30;46.70;;;;;;5038772;28;20021;-82
2022/03/19 05:59:11;;;;;;;41.80;18.25;;;-3276.40;46.60;;;;;;5056559;28;20032;-83
2022/03/19 06:01:37;;;;;;;38.58;16.13;;;-3276.50;46.60;;;;;;5056695;28;20394;-83
2022/03/19 06:04:03;;;;;;;39.60;15.77;;;-3276.50;46.40;;;;;;5038136;28;20047;-83
2022/03/19 06:06:29;;;;;;;22.35;8.60;;;-3276.70;46.40;;;;;;5038181;28;20053;-82
2022/03/19 06:08:55;;;;;;;36.80;14.03;;;-3276.70;46.30;;;;;;5055227;28;20394;-83
2022/03/19 06:11:20;;;;;;;;;;;0.00;46.20;;;;;;5057035;28;20036;-81
2022/03/19 06:13:46;;;;;;;34.20;15.00;;;0.00;46.10;;;;;;5037601;28;19913;-83
2022/03/19 06:16:12;;;;;;;44.95;17.35;;;0.10;45.80;;;;;;5038478;28;20044;-83
2022/03/19 06:18:38;;;;;;;40.17;16.35;;;0.20;45.90;;;;;;5038713;28;20394;-83
2022/03/19 06:21:04;;;;;;;40.13;17.45;;;0.30;45.70;;;;;;5037965;28;20100;-83
2022/03/19 06:23:30;;;;;;;45.50;19.27;;;0.30;45.60;;;;;;5038606;28;20044;-83
2022/03/19 06:25:57;;;;;;;46.60;18.30;;;0.40;45.50;;;;;;5037705;28;20033;-83
2022/03/19 06:28:23;;;;;;;48.07;18.20;;;0.50;45.40;;;;;;5056567;28;20028;-83
2022/03/19 06:30:49;;;;;;;43.20;18.10;;;0.70;45.20;;;;;;5038286;28;20040;-84
2022/03/19 06:33:41;;;;;;;25.70;12.75;;;0.80;45.00;;;;;;5037640;28;20056;-83
2022/03/19 06:38:51;;;;;;;39.43;17.77;;;1.00;44.70;;;;;;5049249;28;20052;-83
2022/03/19 06:41:17;;;;;;;35.63;17.35;;;1.10;44.40;;;;;;5035944;28;20025;-83
2022/03/19 06:43:43;;;;;;;35.65;13.45;;;1.20;44.30;;;;;;5036767;28;20017;-84
2022/03/19 06:46:09;;;;;;;39.77;16.73;;;1.30;44.20;;;;;;5055075;28;20017;-83
2022/03/19 06:48:34;;;;;;;27.88;13.02;;;1.40;44.10;;;;;;5037043;28;20033;-83
2022/03/19 06:51:00;;;;;;;42.17;18.10;;;1.50;44.00;;;;;;5036818;28;20021;-83
2022/03/19 06:53:25;;;;;;;39.67;17.33;;;1.60;43.80;;;;;;5036912;28;20415;-83
2022/03/19 06:55:51;;;;;;;42.88;16.83;;;1.60;43.80;;;;;;5054502;28;20099;-83
2022/03/19 06:58:19;;;;;;;44.03;17.75;;;1.70;43.70;;;;;;5053366;28;20551;-83
2022/03/19 07:00:44;;;;;;;26.97;12.10;;;1.80;43.60;;;;;;5036624;28;20108;-82
2022/03/19 07:03:10;;;;;;;45.08;18.33;;;1.80;43.50;;;;;;5037166;28;20049;-83
2022/03/19 07:05:35;;;;;;;43.50;18.15;;;2.00;43.40;;;;;;5036817;28;20079;-83
2022/03/19 07:08:02;;;;;;;39.45;15.93;;;2.00;43.30;;;;;;5036906;28;20028;-83
2022/03/19 07:10:28;;;;;;;41.03;16.87;;;2.20;43.20;;;;;;5036936;28;20119;-84
2022/03/19 07:12:57;;;;;;;36.85;17.27;;;2.30;43.00;;;;;;5036566;28;20108;-84
2022/03/19 07:15:28;;;;;;;37.73;16.37;;;2.40;42.80;;;;;;5035835;28;20029;-84
2022/03/19 07:17:54;;;;;;;25.63;9.20;;;2.50;42.50;;;;;;5032136;28;20017;-83
2022/03/19 07:20:19;;;;;;;;;;;2.50;42.40;;;;;;5036245;28;20025;-83
2022/03/19 07:23:06;;;;;;;39.70;15.93;;;2.60;42.30;;;;;;5036538;28;19916;-83
2022/03/19 07:25:39;;;;;;;39.38;13.50;;;2.70;42.00;;;;;;5035979;28;20021;-83
2022/03/19 07:28:07;;;;;;;36.73;17.00;;;2.80;41.80;;;;;;5036546;28;20493;-83
2022/03/19 07:30:33;;;;;;;38.43;16.67;;;2.80;41.70;;;;;;5036014;28;20462;-83
2022/03/19 07:32:59;;;;;;;;;;;2.80;41.70;;;;;;5049319;28;20044;-83
2022/03/19 07:35:25;;;;;;;26.33;12.13;;;3.00;41.70;;;;;;5036421;28;19908;-82
2022/03/19 07:37:51;;;;;;;;;;;3.10;41.40;;;;;;5036091;28;20052;-83
2022/03/19 07:43:06;;;;;;;28.70;12.30;;;3.20;41.10;;;;;;5047283;28;20044;-83
2022/03/19 07:45:32;;;;;;;34.90;15.20;;;3.30;41.00;;;;;;5035896;28;20111;-84
2022/03/19 07:47:58;;;;;;;36.08;13.90;;;3.40;40.90;;;;;;5036238;28;20517;-83
2022/03/19 07:50:23;;;;;;;37.75;15.23;;;3.50;40.80;;;;;;5036193;28;20036;-83
2022/03/19 07:53:19;;;;;;;32.90;13.88;;;3.60;40.70;;;;;;5035730;28;20052;-83
2022/03/19 07:55:45;;;;;;;30.13;13.57;;;3.70;40.50;;;;;;5034932;28;20032;-81
2022/03/19 07:58:10;;;;;;;31.80;13.02;;;3.80;40.10;;;;;;5036129;28;20474;-81
2022/03/19 08:00:36;;;;;;;16.35;8.30;;;3.90;39.90;;;;;;5035939;28;20028;-82
2022/03/19 08:03:02;;;;;;;30.10;14.73;;;4.00;39.60;;;;;;5052254;28;20553;-81
2022/03/19 08:05:27;;;;;;;30.90;14.80;;;4.10;39.10;;;;;;5036020;28;20064;-81
2022/03/19 08:07:53;;;;;;;32.20;15.70;;;4.20;39.30;;;;;;5053572;28;20024;-82
2022/03/19 08:10:19;;;;;;;28.60;12.55;;;4.30;39.10;;;;;;5053441;28;20032;-86
2022/03/19 08:12:45;;;;;;;32.78;14.60;;;4.30;39.00;;;;;;5034873;28;20048;-82
2022/03/19 08:15:11;;;;;;;22.57;11.73;;;4.50;38.70;;;;;;5034632;28;20021;-82
2022/03/19 08:17:37;;;;;;;;;;;4.50;38.70;;;;;;5035417;28;20083;-82
2022/03/19 08:20:06;;;;;;;26.77;11.83;;;4.60;38.60;;;;;;5034494;28;20281;-80
2022/03/19 08:22:32;;;;;;;31.63;12.60;;;4.70;38.30;;;;;;5052973;28;20025;-82
2022/03/19 08:24:59;;;;;;;21.27;9.80;;;4.80;38.00;;;;;;5052687;28;20029;-83
2022/03/19 08:27:26;;;;;;;14.67;7.33;;;4.90;37.80;;;;;;5034698;28;20049;-82
2022/03/19 08:29:52;;;;;;;22.90;12.17;;;4.90;37.60;;;;;;5034572;28;20032;-83
2022/03/19 08:32:18;;;;;;;23.98;11.10;;;5.00;37.10;;;;;;5034332;28;20025;-83
2022/03/19 08:34:45;;;;;;;20.70;10.87;;;5.20;37.10;;;;;;5034733;28;20045;-82
2022/03/19 08:37:11;;;;;;;24.00;11.50;;;5.30;37.00;;;;;;5034329;28;20044;-81
2022/03/19 08:42:22;;;;;;;29.73;12.87;;;5.40;36.60;;;;;;5053783;28;20563;-85
2022/03/19 08:44:48;;;;;;;23.63;10.97;;;5.50;36.30;;;;;;5035583;28;20374;-84
2022/03/19 08:47:13;;;;;;;20.13;9.40;;;5.60;36.20;;;;;;5033999;28;20025;-83
2022/03/19 08:49:39;;;;;;;19.95;9.35;;;5.70;36.20;;;;;;5034959;28;20440;-83
2022/03/19 08:52:04;;;;;;;18.92;9.73;;;5.80;35.70;;;;;;5034312;28;20444;-84
2022/03/19 08:54:30;;;;;;;20.25;10.00;;;5.90;35.40;;;;;;5034437;28;20019;-83
2022/03/19 08:56:56;;;;;;;25.42;10.05;;;6.00;35.00;;;;;;5034649;28;20025;-83
2022/03/19 08:59:25;;;;;;;13.93;7.53;;;6.10;35.10;;;;;;5033621;28;20045;-84
2022/03/19 09:01:52;;;;;;;24.50;10.07;;;6.20;34.70;;;;;;5029601;28;20024;-83
2022/03/19 09:04:18;;;;;;;16.63;7.53;;;6.30;34.20;;;;;;5034154;28;20036;-83
2022/03/19 09:06:43;;;;;;;;;;;6.40;33.60;;;;;;5034183;28;20096;-83
2022/03/19 09:09:11;;;;;;;22.40;10.10;;;6.50;33.30;;;;;;5051926;28;19955;-83
2022/03/19 09:11:37;;;;;;;17.70;9.47;;;6.60;33.40;;;;;;5035639;28;20152;-85
2022/03/19 09:14:05;;;;;;;17.03;8.07;;;6.60;33.50;;;;;;5034541;28;20025;-84
2022/03/19 09:16:32;;;;;;;18.87;7.97;;;6.70;33.30;;;;;;5034481;28;20494;-85
2022/03/19 09:18:58;;;;;;;20.20;9.23;;;6.80;33.10;;;;;;5034652;28;20447;-86
2022/03/19 09:21:23;;;;;;;;;;;6.90;32.80;;;;;;5034790;28;20021;-83
2022/03/19 09:23:49;;;;;;;17.63;7.67;;;7.00;32.60;;;;;;5051667;28;19992;-85
2022/03/19 09:26:18;;;;;;;23.52;6.90;;;7.10;32.30;;;;;;5035081;28;20029;-84
2022/03/19 09:28:45;;;;;;;20.90;8.90;;;7.20;32.10;;;;;;5034516;28;20047;-84
2022/03/19 09:31:12;;;;;;;16.20;7.83;;;7.30;31.70;;;;;;5034439;28;20027;-84
2022/03/19 09:33:39;;;;;;;11.23;5.87;;;7.30;31.80;;;;;;5034022;28;20461;-81
2022/03/19 09:36:05;;;;;;;17.40;8.00;;;7.50;31.30;;;;;;5034255;28;20571;-85
2022/03/19 09:38:31;;;;;;;10.18;5.00;;;7.50;30.60;;;;;;5050908;28;20025;-85
2022/03/19 09:40:59;;;;;;;20.13;9.13;;;7.60;30.70;;;;;;5034288;28;20033;-85
2022/03/19 09:43:30;;;;;;;17.23;7.03;;;7.70;29.90;;;;;;5034480;28;20017;-85
2022/03/19 09:45:55;;;;;;;14.07;8.17;;;7.80;29.70;;;;;;5034374;28;20027;-85
2022/03/19 09:48:22;;;;;;;35.75;9.40;;;7.80;29.70;;;;;;5034780;28;20029;-85
2022/03/19 09:50:54;;;;;;;16.30;8.40;;;7.90;29.40;;;;;;5034285;28;20021;-85
2022/03/19 09:53:24;;;;;;;21.03;8.43;;;8.00;28.60;;;;;;5034527;28;20075;-85
2022/03/19 09:55:53;;;;;;;21.07;8.60;;;8.00;28.40;;;;;;5034447;28;20028;-85
2022/03/19 09:58:22;;;;;;;16.00;7.47;;;8.10;28.60;;;;;;5033581;28;20029;-85
2022/03/19 10:00:48;;;;;;;23.60;9.70;;;8.10;28.70;;;;;;5034462;28;20025;-86
2022/03/19 10:03:13;;;;;;;24.15;8.18;;;8.20;28.60;;;;;;5034950;28;20119;-86
2022/03/19 10:08:43;;;;;;;13.47;7.33;;;8.40;28.40;;;;;;5046724;28;20098;-86
2022/03/19 10:11:14;;;;;;;17.37;8.23;;;8.50;28.50;;;;;;5034481;28;20028;-85
2022/03/19 10:13:47;;;;;;;21.93;10.03;;;8.60;27.90;;;;;;5034731;28;20473;-86
2022/03/19 10:16:26;;;;;;;18.80;9.37;;;8.60;27.90;;;;;;5035932;28;20021;-85
2022/03/19 10:19:00;;;;;;;18.60;9.23;;;8.70;28.00;;;;;;5035240;28;20220;-85
2022/03/19 10:21:27;;;;;;;23.20;9.07;;;9.10;27.50;;;;;;5037747;28;20017;-85
2022/03/19 10:23:55;;;;;;;15.67;7.87;;;9.90;27.00;;;;;;5038093;28;20032;-86
2022/03/19 10:26:27;;;;;;;21.07;10.50;;;11.30;26.00;;;;;;5055674;28;20032;-85
2022/03/19 10:29:00;;;;;;;16.15;9.30;;;12.70;25.10;;;;;;5037737;28;20036;-85
2022/03/19 10:31:37;;;;;;;14.30;7.32;;;14.30;24.20;;;;;;5037391;28;20079;-83
2022/03/19 10:34:05;;;;;;;19.55;10.73;;;15.70;23.10;;;;;;5036661;28;20397;-84
2022/03/19 10:36:44;;;;;;;18.70;10.30;;;16.80;22.70;;;;;;5034665;28;20021;-86
2022/03/19 10:39:22;;;;;;;14.68;8.60;;;18.00;21.90;;;;;;5037049;28;20029;-86
2022/03/19 10:41:51;;;;;;;16.25;8.70;;;19.10;20.90;;;;;;5036964;28;20025;-85
2022/03/19 10:44:21;;;;;;;17.48;9.60;;;19.80;19.70;;;;;;5037120;28;20029;-86
2022/03/19 10:46:49;;;;;;;15.80;9.15;;;20.50;18.80;;;;;;5036890;28;20389;-86
2022/03/19 10:49:17;;;;;;;17.23;8.93;;;20.80;18.30;;;;;;5036980;28;20055;-86
2022/03/19 10:51:47;;;;;;;18.75;9.55;;;21.40;17.90;;;;;;5037457;28;20028;-87
2022/03/19 10:54:14;;;;;;;17.88;11.23;;;21.90;17.70;;;;;;5037738;28;20070;-85
2022/03/19 10:56:44;;;;;;;17.05;10.82;;;22.30;17.20;;;;;;5036818;28;20470;-85
2022/03/19 10:59:10;;;;;;;21.77;11.38;;;22.50;17.10;;;;;;5037595;28;20501;-87
2022/03/19 11:01:36;;;;;;;16.98;9.82;;;22.80;16.90;;;;;;5036920;28;20025;-86
2022/03/19 11:04:04;;;;;;;14.68;9.43;;;23.20;16.50;;;;;;5036841;28;20127;-86
2022/03/19 11:06:36;;;;;;;13.57;7.53;;;23.60;16.10;;;;;;5036975;28;20079;-87
2022/03/19 11:09:14;;;;;;;15.40;7.20;;;24.10;15.70;;;;;;5046979;28;20497;-86
2022/03/19 11:11:50;;;;;;;10.55;7.28;;;24.30;15.00;;;;;;5036000;28;20032;-87
2022/03/19 11:14:23;;;;;;;13.07;7.60;;;24.60;14.70;;;;;;5043615;28;20029;-95
2022/03/19 11:17:23;;;;;;;14.32;7.10;;;24.90;14.20;;;;;;5047200;28;20028;-96
2022/03/19 11:19:40;;;;;;;13.20;8.23;;;25.10;14.00;;;;;;5065116;28;20396;-96
2022/03/19 11:22:07;;;;;;;13.77;8.35;;;25.40;13.90;;;;;;5048004;28;20223;-95
2022/03/19 11:24:41;;;;;;;13.38;7.55;;;25.60;13.60;;;;;;5046406;28;20053;-94
2022/03/19 11:27:09;;;;;;;11.20;6.93;;;26.00;13.60;;;;;;5046488;28;20020;-95
2022/03/19 11:29:35;;;;;;;13.68;7.45;;;26.20;13.30;;;;;;5047108;28;20016;-96
2022/03/19 11:32:05;;;;;;;14.13;7.85;;;26.30;13.10;;;;;;5049401;28;20024;-96
2022/03/19 11:34:48;;;;;;;10.88;7.43;;;26.50;13.20;;;;;;5044280;28;20048;-95
2022/03/19 11:37:14;;;;;;;12.27;7.63;;;26.80;13.00;;;;;;5060069;28;20029;-93
2022/03/19 11:40:01;;;;;;;11.05;7.20;;;27.10;12.80;;;;;;5047257;28;20033;-93
2022/03/19 11:42:30;;;;;;;10.90;5.97;;;26.90;12.70;;;;;;5048114;28;20029;-95
2022/03/19 11:45:10;;;;;;;11.35;6.40;;;27.10;12.60;;;;;;5048462;28;20021;-93
2022/03/19 11:47:35;;;;;;;10.70;6.20;;;27.10;12.30;;;;;;5043347;28;20117;-94
2022/03/19 11:50:05;;;;;;;15.00;6.47;;;27.20;12.40;;;;;;5043350;28;20085;-94
2022/03/19 11:52:52;;;;;;;12.80;7.63;;;27.40;12.30;;;;;;5042003;28;20059;-94
2022/03/19 11:55:18;;;;;;;11.02;6.88;;;27.50;12.00;;;;;;5041333;28;20021;-94
2022/03/19 11:57:55;;;;;;;13.23;7.10;;;27.80;12.00;;;;;;5041768;28;20040;-94
2022/03/19 12:00:32;;;;;;;11.13;6.60;;;27.80;11.50;;;;;;5038608;28;20062;-91
2022/03/19 12:03:02;;;;;;;11.60;6.28;;;27.70;11.70;;;;;;5038225;28;20039;-90
2022/03/19 12:05:28;;;;;;;10.15;6.45;;;27.50;11.40;;;;;;5037542;28;20036;-89
2022/03/19 12:08:05;;;;;;;13.73;7.95;;;27.40;11.40;;;;;;5052485;28;20051;-90
2022/03/19 12:10:38;;;;;;;14.20;8.00;;;27.50;11.30;;;;;;5022504;28;20060;-91
2022/03/19 12:13:26;;;;;;;8.13;5.22;;;27.50;11.10;;;;;;5039873;28;20031;-89
2022/03/19 12:15:53;;;;;;;8.82;5.10;;;27.30;11.00;;;;;;5057608;28;20124;-91
2022/03/19 12:18:46;;;;;;;10.18;5.57;;;27.30;11.10;;;;;;5040036;28;20064;-90
2022/03/19 12:21:11;;;;;;;10.20;6.35;;;27.30;11.10;;;;;;5040064;28;20493;-89
2022/03/19 12:23:45;;;;;;;11.73;7.03;;;27.30;11.00;;;;;;5040188;28;20025;-89
2022/03/19 12:26:13;;;;;;;11.23;6.72;;;27.00;11.00;;;;;;5039665;28;20513;-90
2022/03/19 12:28:39;;;;;;;10.75;5.90;;;26.90;11.20;;;;;;5024644;28;20083;-90
2022/03/19 12:31:13;;;;;;;12.07;5.32;;;26.80;11.10;;;;;;5039992;28;20035;-90
2022/03/19 12:33:38;;;;;;;9.02;4.82;;;26.90;11.00;;;;;;5039428;28;20498;-90
2022/03/19 12:36:15;;;;;;;10.43;6.53;;;27.10;10.90;;;;;;5038333;28;20017;-90
2022/03/19 12:38:41;;;;;;;10.13;5.35;;;27.30;10.60;;;;;;5051783;28;20025;-90
2022/03/19 12:41:24;;;;;;;6.93;5.07;;;27.30;10.40;;;;;;5019055;28;20117;-91
2022/03/19 12:43:51;;;;;;;10.52;6.25;;;27.10;10.60;;;;;;5027655;28;20029;-89
2022/03/19 12:46:34;;;;;;;12.05;5.80;;;27.10;10.60;;;;;;5050564;28;20036;-89
2022/03/19 12:49:11;;;;;;;9.98;6.80;;;27.30;10.70;;;;;;5038777;28;20025;-90
2022/03/19 12:51:43;;;;;;;11.30;6.10;;;27.40;10.50;;;;;;5038773;28;20119;-90